Saint Louis, Missouri
Traffic Map
Current Weather Conditions
Saint Louis, Missouri
Clear
Clear
34°
Feels Like: 34°
Wind Chill: 34° Ceiling: Unl
Heat Index: 34° Visibility: 10mi
Dew Point: 17° Wind: 7mph
Humidity: 36% Direction: 320° (NW)
Pressure: 30.07in Gusts: 0mph
Raw Report DataKCPS 311853Z 32006KT 10SM CLR 34/17 A3007 RMK AO2 SLP176 T03390167
Traffic Incident Summary
Active as of:
Severity:
Category:
InformationThere was an issue retrieving the traffic information for this location. Please try a different location or try again shortly.
Advertisements
Track Severe Weather on mobile